createdAt,value
2022-09-13T00:01:46.513Z,101099.91
2022-09-13T00:04:15.857Z,101095.38
2022-09-13T00:06:46.332Z,101095.22
2022-09-13T00:09:17.040Z,101084.91
2022-09-13T00:11:46.260Z,101109.97
2022-09-13T00:14:15.396Z,101101.88
2022-09-13T00:16:44.575Z,101099.34
2022-09-13T00:19:13.794Z,101092.38
2022-09-13T00:21:43.066Z,101074.13
2022-09-13T00:24:12.659Z,101098.34
2022-09-13T00:26:43.342Z,101092.41
2022-09-13T00:29:12.570Z,101102.63
2022-09-13T00:31:41.801Z,101089.69
2022-09-13T00:34:11.172Z,101091.13
2022-09-13T00:36:40.390Z,101085.13
2022-09-13T00:39:10.615Z,101080.47
2022-09-13T00:41:40.255Z,101053.81
2022-09-13T00:44:55.137Z,101088.88
2022-09-13T00:47:33.682Z,101086.16
2022-09-13T00:50:12.923Z,101081.28
2022-09-13T00:52:46.647Z,101083.09
2022-09-13T00:55:22.722Z,101095.03
2022-09-13T00:57:53.099Z,101087.44
2022-09-13T01:00:25.721Z,101077.28
2022-09-13T01:03:00.568Z,101081.31
2022-09-13T01:05:37.853Z,101067.91
2022-09-13T01:08:18.197Z,101078.41
2022-09-13T01:10:49.755Z,101078.41
2022-09-13T01:13:23.029Z,101063.88
2022-09-13T01:15:54.122Z,101073.06
2022-09-13T01:18:23.327Z,101054.81
2022-09-13T01:21:44.916Z,101086.81
2022-09-13T01:25:05.974Z,101085.34
2022-09-13T01:27:49.460Z,101081.19
2022-09-13T01:30:21.937Z,101070.34
2022-09-13T01:33:09.357Z,101096.38
2022-09-13T01:35:51.897Z,101080.53
2022-09-13T01:38:40.533Z,101088.47
2022-09-13T01:41:25.513Z,101085.69
2022-09-13T01:44:04.933Z,101092.47
2022-09-13T01:46:45.030Z,101090.06
2022-09-13T01:49:21.561Z,101090.22
2022-09-13T01:52:00.328Z,101094.25
2022-09-13T01:54:39.885Z,101071.47
2022-09-13T01:57:17.337Z,101084.22
2022-09-13T01:59:52.624Z,101084.56
2022-09-13T02:02:32.904Z,101085.03
2022-09-13T02:05:10.058Z,101083.41
2022-09-13T02:07:44.281Z,101072.09
2022-09-13T02:10:22.190Z,101077.78
2022-09-13T02:12:54.733Z,101060.63
2022-09-13T02:15:28.517Z,101074.84
2022-09-13T02:18:09.665Z,101071.94
2022-09-13T02:20:44.491Z,101055.78
2022-09-13T02:23:17.911Z,101078.41
2022-09-13T02:25:49.861Z,101070.47
2022-09-13T02:28:28.691Z,101077.78
2022-09-13T02:31:00.731Z,101089.72
2022-09-13T02:33:37.178Z,101083.25
2022-09-13T02:36:10.031Z,101080.53
2022-09-13T02:38:45.569Z,101079.19
2022-09-13T02:41:20.261Z,101070.31
2022-09-13T02:43:55.135Z,101088.44
2022-09-13T02:46:41.024Z,101090.53
2022-09-13T02:49:19.013Z,101086.97
2022-09-13T02:51:57.171Z,101077.91
2022-09-13T02:54:34.308Z,101084.03
2022-09-13T02:57:10.855Z,101089.69
2022-09-13T02:59:40.399Z,101079.34
2022-09-13T03:02:15.391Z,101088.22
2022-09-13T03:04:46.390Z,101083.38
2022-09-13T03:07:16.507Z,101084.34
2022-09-13T03:09:51.483Z,101066.22
2022-09-13T03:12:49.105Z,101071.41
2022-09-13T03:15:37.254Z,101075.13
2022-09-13T03:18:21.418Z,101075.41
2022-09-13T03:21:03.165Z,101074.94
2022-09-13T03:23:50.380Z,101010.53
2022-09-13T03:26:28.660Z,101076.88
2022-09-13T03:29:15.118Z,101052.47
2022-09-13T03:31:55.444Z,101078.34
2022-09-13T03:34:35.102Z,101062.00
2022-09-13T03:37:16.235Z,101073.81
2022-09-13T03:39:52.355Z,101077.06
2022-09-13T03:42:29.773Z,101071.59
2022-09-13T03:45:02.020Z,101075.63
2022-09-13T03:47:35.148Z,101067.53
2022-09-13T03:50:07.328Z,101072.06
2022-09-13T03:52:39.786Z,101046.97
2022-09-13T03:55:11.538Z,101085.78
2022-09-13T03:57:40.683Z,101081.75
2022-09-13T04:00:14.118Z,101070.41
2022-09-13T04:02:43.398Z,101092.06
2022-09-13T04:05:12.720Z,101085.59
2022-09-13T04:07:48.926Z,101089.31
2022-09-13T04:10:18.082Z,101078.94
2022-09-13T04:12:47.192Z,101066.66
2022-09-13T04:15:16.924Z,101065.72
2022-09-13T04:17:46.060Z,101072.81
2022-09-13T04:20:15.734Z,101064.06
2022-09-13T04:22:45.248Z,101059.19
2022-09-13T04:25:16.247Z,101069.84
2022-09-13T04:27:45.412Z,101081.16
2022-09-13T04:30:15.295Z,101065.47
2022-09-13T04:32:45.573Z,101069.69
2022-09-13T04:35:17.212Z,101062.88
2022-09-13T04:37:46.782Z,101058.53
2022-09-13T04:40:17.612Z,101068.22
2022-09-13T04:42:47.056Z,101069.84
2022-09-13T04:45:16.326Z,101071.13
2022-09-13T04:47:45.597Z,101067.28
2022-09-13T04:50:14.820Z,101061.13
2022-09-13T04:52:44.120Z,101079.56
2022-09-13T04:55:13.387Z,101073.25
2022-09-13T04:57:43.946Z,101062.91
2022-09-13T05:00:13.932Z,101073.88
2022-09-13T05:02:43.103Z,101069.84
2022-09-13T05:05:12.298Z,101073.72
2022-09-13T05:07:41.438Z,101074.38
2022-09-13T05:10:12.750Z,101074.84
2022-09-13T05:12:44.560Z,101063.69
2022-09-13T05:15:13.880Z,101070.31
2022-09-13T05:17:43.162Z,101069.34
2022-09-13T05:20:12.938Z,101055.41
2022-09-13T05:22:42.054Z,101056.56
2022-09-13T05:25:11.769Z,101054.75
2022-09-13T05:27:40.941Z,101051.19
2022-09-13T05:30:13.883Z,101061.66
2022-09-13T05:32:43.064Z,101052.94
2022-09-13T05:35:12.217Z,101056.00
2022-09-13T05:37:41.383Z,101047.72
2022-09-13T05:40:12.486Z,101041.94
2022-09-13T05:42:42.191Z,101037.38
2022-09-13T05:45:12.982Z,101045.31
2022-09-13T05:47:42.127Z,101057.91
2022-09-13T05:50:22.945Z,101054.34
2022-09-13T05:53:00.896Z,101054.63
2022-09-13T05:55:31.089Z,101045.56
2022-09-13T05:58:00.235Z,101055.59
2022-09-13T06:00:31.915Z,101046.69
2022-09-13T06:03:01.121Z,101049.00
2022-09-13T06:05:32.033Z,101028.31
2022-09-13T06:08:01.289Z,101043.66
2022-09-13T06:10:30.477Z,101045.13
2022-09-13T06:12:59.591Z,101046.72
2022-09-13T06:15:30.165Z,101027.34
2022-09-13T06:17:59.659Z,101044.00
2022-09-13T06:20:28.928Z,101041.25
2022-09-13T06:22:58.009Z,101040.28
2022-09-13T06:25:27.162Z,101053.84
2022-09-13T06:27:56.450Z,101049.34
2022-09-13T06:30:25.636Z,101042.06
2022-09-13T06:32:57.830Z,101038.34
2022-09-13T06:35:27.209Z,101055.19
2022-09-13T06:37:58.889Z,101009.22
2022-09-13T06:40:29.010Z,101060.53
2022-09-13T06:42:58.439Z,101059.78
2022-09-13T06:45:28.290Z,101059.84
2022-09-13T06:47:59.081Z,101067.28
2022-09-13T06:50:40.799Z,101060.34
2022-09-13T06:53:10.448Z,101069.75
2022-09-13T06:55:39.923Z,101068.97
2022-09-13T06:58:14.710Z,101064.78
2022-09-13T07:00:52.928Z,101073.22
2022-09-13T07:03:28.349Z,101079.72
2022-09-13T07:05:59.989Z,101080.19
2022-09-13T07:08:32.682Z,101038.66
2022-09-13T07:11:02.407Z,101074.69
2022-09-13T07:13:31.613Z,101065.16
2022-09-13T07:16:04.696Z,101070.50
2022-09-13T07:18:35.734Z,101049.00
2022-09-13T07:21:08.988Z,101063.53
2022-09-13T07:23:41.301Z,101067.41
2022-09-13T07:26:13.006Z,101059.78
2022-09-13T07:28:44.238Z,101077.06
2022-09-13T07:31:19.672Z,101031.16
2022-09-13T07:33:55.576Z,101065.03
2022-09-13T07:36:25.510Z,101059.19
2022-09-13T07:38:58.792Z,101059.63
2022-09-13T07:41:32.331Z,101053.38
2022-09-13T07:44:03.112Z,101047.72
2022-09-13T07:46:43.722Z,101036.00
2022-09-13T07:49:21.602Z,101043.41
2022-09-13T07:51:53.294Z,101047.44
2022-09-13T07:54:22.519Z,101048.88
2022-09-13T07:56:52.028Z,101020.75
2022-09-13T07:59:21.456Z,101058.69
2022-09-13T08:01:52.621Z,101041.06
2022-09-13T08:04:27.158Z,101061.38
2022-09-13T08:06:56.648Z,101033.75
2022-09-13T08:09:27.966Z,101077.34
2022-09-13T08:11:57.239Z,101073.44
2022-09-13T08:14:29.632Z,101070.47
2022-09-13T08:17:00.252Z,101081.44
2022-09-13T08:19:31.051Z,101064.66
2022-09-13T08:22:01.106Z,101067.22
2022-09-13T08:24:30.265Z,101063.94
2022-09-13T08:26:59.501Z,101076.97
2022-09-13T08:29:28.651Z,101073.91
2022-09-13T08:31:57.863Z,101054.94
2022-09-13T08:34:27.368Z,101073.31
2022-09-13T08:36:58.544Z,101072.41
2022-09-13T08:39:29.313Z,101063.88
2022-09-13T08:42:21.045Z,101067.38
2022-09-13T08:44:54.665Z,101075.22
2022-09-13T08:47:35.841Z,101070.28
2022-09-13T08:50:17.441Z,101069.38
2022-09-13T08:53:10.015Z,101086.53
2022-09-13T08:55:52.703Z,101033.13
2022-09-13T08:58:52.981Z,101063.03
2022-09-13T09:01:48.622Z,101068.78
2022-09-13T09:04:36.258Z,101054.03
2022-09-13T09:07:14.623Z,101025.06
2022-09-13T09:09:52.460Z,101065.69
2022-09-13T09:12:35.335Z,101059.22
2022-09-13T09:15:21.457Z,101023.91
2022-09-13T09:18:01.371Z,101059.91
2022-09-13T09:20:39.151Z,101071.19
2022-09-13T09:23:20.975Z,101056.13
2022-09-13T09:26:02.209Z,101062.81
2022-09-13T09:28:31.763Z,101066.72
2022-09-13T09:31:06.274Z,101071.53
2022-09-13T09:34:02.326Z,101046.44
2022-09-13T09:36:43.434Z,101042.75
2022-09-13T09:39:16.455Z,101062.03
2022-09-13T09:41:47.673Z,101062.16
2022-09-13T09:44:22.806Z,101068.56
2022-09-13T09:47:03.575Z,101060.72
2022-09-13T09:50:00.072Z,101047.84
2022-09-13T09:52:37.116Z,101061.41
2022-09-13T09:55:27.026Z,101065.84
2022-09-13T09:58:01.551Z,101070.88
2022-09-13T10:00:36.644Z,101061.97
2022-09-13T10:03:19.177Z,101062.50
2022-09-13T10:05:48.981Z,101066.81
2022-09-13T10:08:32.300Z,101059.06
2022-09-13T10:11:03.293Z,101046.69
2022-09-13T10:13:34.654Z,101061.28
2022-09-13T10:16:24.837Z,101061.19
2022-09-13T10:18:59.872Z,101072.63
2022-09-13T10:21:30.687Z,101067.25
2022-09-13T10:24:22.803Z,101050.28
2022-09-13T10:26:57.070Z,101063.84
2022-09-13T10:29:29.745Z,101079.56
2022-09-13T10:32:03.784Z,101064.50
2022-09-13T10:34:39.769Z,101059.22
2022-09-13T10:37:21.685Z,101064.53
2022-09-13T10:40:04.039Z,101065.63
2022-09-13T10:42:37.170Z,101074.72
2022-09-13T10:45:10.728Z,101067.47
2022-09-13T10:47:46.457Z,101080.69
2022-09-13T10:50:25.205Z,101079.53
2022-09-13T10:52:56.395Z,101039.88
2022-09-13T10:55:36.148Z,101067.03
2022-09-13T10:58:19.395Z,101074.06
2022-09-13T11:01:38.289Z,101065.41
2022-09-13T11:05:07.016Z,101077.38
2022-09-13T11:08:24.103Z,101073.56
2022-09-13T11:11:11.319Z,101076.41
2022-09-13T11:14:04.400Z,101078.22
2022-09-13T11:16:54.535Z,101059.81
2022-09-13T11:20:13.470Z,101067.97
2022-09-13T11:23:23.773Z,101070.16
2022-09-13T11:26:14.375Z,101071.75
2022-09-13T11:28:55.826Z,101047.25
2022-09-13T11:31:43.171Z,101069.22
2022-09-13T11:34:30.054Z,101076.59
2022-09-13T11:37:17.845Z,101079.28
2022-09-13T11:40:00.877Z,101075.75
2022-09-13T11:42:44.606Z,101070.22
2022-09-13T11:45:27.411Z,101062.34
2022-09-13T11:48:13.499Z,101047.88
2022-09-13T11:50:57.678Z,101015.81
2022-09-13T11:53:59.606Z,101031.16
2022-09-13T11:56:35.826Z,101061.31
2022-09-13T11:59:22.117Z,101054.84
2022-09-13T12:01:56.915Z,101051.53
2022-09-13T12:04:34.686Z,101045.13
2022-09-13T12:07:11.753Z,101044.00
2022-09-13T12:09:53.306Z,101031.41
2022-09-13T12:12:26.452Z,101045.06
2022-09-13T12:15:01.377Z,101053.97
2022-09-13T12:17:36.397Z,101046.28
2022-09-13T12:20:17.330Z,101043.94
2022-09-13T12:22:49.146Z,101043.97
2022-09-13T12:25:24.104Z,101041.00
2022-09-13T12:28:05.765Z,101022.50
2022-09-13T12:30:43.995Z,101024.03
2022-09-13T12:33:17.057Z,101025.03
2022-09-13T12:36:02.176Z,101034.47
2022-09-13T12:39:18.159Z,101033.25
2022-09-13T12:42:07.822Z,101034.47
2022-09-13T12:45:08.321Z,101023.50
2022-09-13T12:48:15.304Z,101026.91
2022-09-13T12:51:06.691Z,101013.44
2022-09-13T12:54:07.599Z,101009.50
2022-09-13T12:56:57.006Z,101015.78
2022-09-13T12:59:50.817Z,101016.44
2022-09-13T13:02:35.872Z,101016.47
2022-09-13T13:05:19.406Z,101012.13
2022-09-13T13:07:57.974Z,101011.78
2022-09-13T13:10:33.171Z,101010.59
2022-09-13T13:13:16.089Z,101002.53
2022-09-13T13:16:25.467Z,100989.59
2022-09-13T13:18:55.626Z,100990.13
2022-09-13T13:21:33.865Z,101005.75
2022-09-13T13:24:52.089Z,101014.19
2022-09-13T13:27:48.391Z,101002.16
2022-09-13T13:30:52.539Z,100976.81
2022-09-13T13:33:27.369Z,100976.47
2022-09-13T13:35:56.968Z,100992.00
2022-09-13T13:38:47.674Z,100976.75
2022-09-13T13:41:53.657Z,100974.59
2022-09-13T13:45:22.390Z,100978.00
2022-09-13T13:48:12.280Z,100979.59
2022-09-13T13:51:20.429Z,100960.56
2022-09-13T13:54:01.978Z,100961.56
2022-09-13T13:56:49.986Z,100961.56
2022-09-13T13:59:29.245Z,100965.69
2022-09-13T14:02:02.057Z,100971.25
2022-09-13T14:05:19.411Z,100956.38
2022-09-13T14:08:27.326Z,100957.69
2022-09-13T14:11:05.065Z,100966.06
2022-09-13T14:13:54.787Z,100961.69
2022-09-13T14:16:40.279Z,100949.72
2022-09-13T14:19:24.363Z,100938.03
2022-09-13T14:22:20.427Z,100953.94
2022-09-13T14:24:51.317Z,100951.63
2022-09-13T14:27:24.726Z,100960.81
2022-09-13T14:29:58.860Z,100940.34
2022-09-13T14:32:37.159Z,100943.94
2022-09-13T14:35:30.755Z,100957.75
2022-09-13T14:38:14.424Z,100947.16
2022-09-13T14:40:49.353Z,100945.91
2022-09-13T14:43:21.220Z,100937.47
2022-09-13T14:45:59.489Z,100928.09
2022-09-13T14:48:34.156Z,100941.72
2022-09-13T14:51:09.893Z,100912.09
2022-09-13T14:53:41.462Z,100935.22
2022-09-13T14:56:18.138Z,100921.59
2022-09-13T14:58:52.149Z,100921.63
2022-09-13T15:01:29.960Z,100912.91
2022-09-13T15:04:01.663Z,100916.16
2022-09-13T15:06:33.835Z,100915.34
2022-09-13T15:09:18.839Z,100916.16
2022-09-13T15:12:01.183Z,100908.88
2022-09-13T15:14:34.965Z,100902.81
2022-09-13T15:17:14.259Z,100916.41
2022-09-13T15:19:45.755Z,100914.47
2022-09-13T15:22:20.965Z,100912.94
2022-09-13T15:24:53.314Z,100906.59
2022-09-13T15:27:30.664Z,100895.78
2022-09-13T15:30:03.387Z,100911.31
2022-09-13T15:32:43.143Z,100912.88
2022-09-13T15:35:24.737Z,100910.84
2022-09-13T15:38:02.214Z,100905.66
2022-09-13T15:40:42.671Z,100903.28
2022-09-13T15:43:11.851Z,100907.31
2022-09-13T15:45:43.538Z,100900.47
2022-09-13T15:48:26.455Z,100905.59
2022-09-13T15:51:11.932Z,100906.63
2022-09-13T15:53:46.875Z,100866.13
2022-09-13T15:56:19.487Z,100898.84
2022-09-13T15:58:51.000Z,100895.91
2022-09-13T16:01:20.303Z,100885.81
2022-09-13T16:03:51.012Z,100895.25
2022-09-13T16:06:24.441Z,100883.22
2022-09-13T16:08:54.386Z,100891.16
2022-09-13T16:11:23.554Z,100871.16
2022-09-13T16:13:52.721Z,100871.56
2022-09-13T16:16:22.176Z,100849.13
2022-09-13T16:18:52.811Z,100870.31
2022-09-13T16:21:22.041Z,100859.97
2022-09-13T16:23:51.306Z,100868.75
2022-09-13T16:26:20.432Z,100861.53
2022-09-13T16:28:49.737Z,100854.72
2022-09-13T16:31:20.295Z,100871.09
2022-09-13T16:33:54.185Z,100858.03
2022-09-13T16:36:23.823Z,100864.81
2022-09-13T16:38:52.937Z,100871.22
2022-09-13T16:41:22.561Z,100870.44
2022-09-13T16:43:51.779Z,100872.78
2022-09-13T16:46:21.105Z,100872.75
2022-09-13T16:48:55.673Z,100869.50
2022-09-13T16:51:25.773Z,100875.72
2022-09-13T16:53:56.065Z,100847.13
2022-09-13T16:56:27.407Z,100857.06
2022-09-13T16:58:57.271Z,100872.56
2022-09-13T17:01:29.395Z,100879.97
2022-09-13T17:04:02.386Z,100874.34
2022-09-13T17:06:32.528Z,100869.47
2022-09-13T17:09:05.428Z,100869.06
2022-09-13T17:11:38.630Z,100873.81
2022-09-13T17:14:11.010Z,100872.56
2022-09-13T17:16:44.580Z,100874.38
2022-09-13T17:19:20.943Z,100873.47
2022-09-13T17:21:51.561Z,100868.66
2022-09-13T17:24:20.930Z,100875.41
2022-09-13T17:26:50.077Z,100869.81
2022-09-13T17:29:23.392Z,100872.19
2022-09-13T17:31:52.715Z,100872.91
2022-09-13T17:34:23.264Z,100873.25
2022-09-13T17:36:52.577Z,100875.59
2022-09-13T17:39:22.386Z,100860.00
2022-09-13T17:41:51.706Z,100873.19
2022-09-13T17:44:21.324Z,100880.72
2022-09-13T17:46:50.718Z,100875.06
2022-09-13T17:49:20.201Z,100866.59
2022-09-13T17:51:50.833Z,100871.31
2022-09-13T17:54:20.353Z,100862.88
2022-09-13T17:56:51.622Z,100877.81
2022-09-13T17:59:23.039Z,100861.63
2022-09-13T18:01:54.881Z,100859.91
2022-09-13T18:04:25.773Z,100861.91
2022-09-13T18:06:56.567Z,100867.25
2022-09-13T18:09:27.024Z,100867.53
2022-09-13T18:11:56.184Z,100860.63
2022-09-13T18:14:27.708Z,100872.78
2022-09-13T18:16:58.144Z,100858.22
2022-09-13T18:19:44.779Z,100864.78
2022-09-13T18:22:17.342Z,100869.75
2022-09-13T18:24:46.838Z,100856.94
2022-09-13T18:27:16.111Z,100867.88
2022-09-13T18:29:45.346Z,100857.78
2022-09-13T18:32:14.594Z,100870.47
2022-09-13T18:34:44.351Z,100877.50
2022-09-13T18:37:13.735Z,100876.34
2022-09-13T18:39:44.243Z,100863.41
2022-09-13T18:42:13.494Z,100863.69
2022-09-13T18:44:42.617Z,100868.78
2022-09-13T18:47:13.120Z,100872.56
2022-09-13T18:49:42.335Z,100869.88
2022-09-13T18:52:12.460Z,100854.53
2022-09-13T18:54:43.422Z,100840.09
2022-09-13T18:57:12.658Z,100873.25
2022-09-13T18:59:41.832Z,100863.34
2022-09-13T19:02:11.965Z,100862.56
2022-09-13T19:04:41.351Z,100872.94
2022-09-13T19:07:10.811Z,100868.25
2022-09-13T19:09:40.246Z,100871.38
2022-09-13T19:12:11.096Z,100870.75
2022-09-13T19:14:40.390Z,100876.28
2022-09-13T19:17:09.713Z,100875.38
2022-09-13T19:19:39.109Z,100866.56
2022-09-13T19:22:08.401Z,100875.47
2022-09-13T19:24:38.458Z,100885.59
2022-09-13T19:27:07.664Z,100855.31
2022-09-13T19:29:38.696Z,100884.53
2022-09-13T19:32:07.991Z,100870.50
2022-09-13T19:34:37.535Z,100876.03
2022-09-13T19:37:06.981Z,100856.16
2022-09-13T19:39:36.248Z,100877.44
2022-09-13T19:42:05.929Z,100875.34
2022-09-13T19:44:35.278Z,100873.19
2022-09-13T19:47:53.106Z,100866.19
2022-09-13T19:49:56.816Z,100854.50
2022-09-13T19:52:26.181Z,100883.34
2022-09-13T19:54:56.480Z,100873.13
2022-09-13T19:57:26.696Z,100881.97
2022-09-13T19:59:55.856Z,100866.22
2022-09-13T20:02:26.746Z,100868.97
2022-09-13T20:04:56.101Z,100882.47
2022-09-13T20:07:25.456Z,100886.72
2022-09-13T20:09:54.796Z,100877.53
2022-09-13T20:12:24.321Z,100888.13
2022-09-13T20:14:53.466Z,100883.28
2022-09-13T20:17:22.646Z,100884.00
2022-09-13T20:19:54.136Z,100881.91
2022-09-13T20:22:23.364Z,100866.91
2022-09-13T20:24:52.712Z,100886.09
2022-09-13T20:27:22.096Z,100890.69
2022-09-13T20:29:51.884Z,100877.81
2022-09-13T20:32:21.247Z,100884.94
2022-09-13T20:34:52.536Z,100893.13
2022-09-13T20:37:22.686Z,100875.88
2022-09-13T20:39:52.125Z,100891.28
2022-09-13T20:42:21.598Z,100881.19
2022-09-13T20:44:50.759Z,100873.94
2022-09-13T20:47:20.058Z,100877.03
2022-09-13T20:49:49.273Z,100861.06
2022-09-13T20:52:19.877Z,100878.53
2022-09-13T20:54:49.224Z,100859.19
2022-09-13T20:57:18.600Z,100876.00
2022-09-13T20:59:48.011Z,100878.94
2022-09-13T21:02:17.274Z,100883.56
2022-09-13T21:04:46.766Z,100873.09
2022-09-13T21:07:33.762Z,100861.72
2022-09-13T21:10:05.457Z,100870.44
2022-09-13T21:12:35.859Z,100877.22
2022-09-13T21:15:07.068Z,100881.69
2022-09-13T21:17:36.596Z,100881.59
2022-09-13T21:20:06.950Z,100879.38
2022-09-13T21:22:37.226Z,100865.47
2022-09-13T21:25:09.805Z,100864.44
2022-09-13T21:27:41.721Z,100868.81
2022-09-13T21:30:12.076Z,100876.28
2022-09-13T21:32:42.034Z,100849.47
2022-09-13T21:35:13.226Z,100836.47
2022-09-13T21:37:42.718Z,100873.13
2022-09-13T21:40:14.120Z,100876.59
2022-09-13T21:42:43.355Z,100870.16
2022-09-13T21:45:12.896Z,100869.66
2022-09-13T21:47:42.179Z,100856.31
2022-09-13T21:50:11.807Z,100844.94
2022-09-13T21:52:41.726Z,100873.31
2022-09-13T21:55:12.468Z,100863.44
2022-09-13T21:57:43.970Z,100863.00
2022-09-13T22:00:15.903Z,100854.91
2022-09-13T22:02:45.106Z,100859.53
2022-09-13T22:05:14.832Z,100850.19
2022-09-13T22:07:44.076Z,100853.41
2022-09-13T22:10:14.605Z,100831.47
2022-09-13T22:12:43.757Z,100846.75
2022-09-13T22:15:13.214Z,100852.13
2022-09-13T22:17:42.410Z,100847.63
2022-09-13T22:20:12.166Z,100834.25
2022-09-13T22:22:41.263Z,100842.47
2022-09-13T22:25:10.918Z,100837.81
2022-09-13T22:27:41.473Z,100808.63
2022-09-13T22:30:12.289Z,100839.84
2022-09-13T22:32:41.578Z,100833.75
2022-09-13T22:35:11.592Z,100832.38
2022-09-13T22:37:40.857Z,100828.69
2022-09-13T22:40:11.493Z,100836.53
2022-09-13T22:42:42.017Z,100840.56
2022-09-13T22:45:11.873Z,100834.91
2022-09-13T22:47:40.979Z,100835.53
2022-09-13T22:50:11.006Z,100832.88
2022-09-13T22:52:40.137Z,100847.94
2022-09-13T22:55:10.197Z,100836.22
2022-09-13T22:57:39.330Z,100842.44
2022-09-13T23:00:12.834Z,100837.28
2022-09-13T23:02:46.451Z,100845.34
2022-09-13T23:05:17.090Z,100815.59
2022-09-13T23:07:46.266Z,100841.25
2022-09-13T23:10:15.601Z,100838.59
2022-09-13T23:12:45.592Z,100840.31
2022-09-13T23:15:16.426Z,100829.50
2022-09-13T23:17:45.602Z,100812.06
2022-09-13T23:20:14.883Z,100814.38
2022-09-13T23:22:44.116Z,100835.97
2022-09-13T23:25:13.344Z,100826.53
2022-09-13T23:27:42.640Z,100836.66
2022-09-13T23:30:13.100Z,100826.41
2022-09-13T23:32:43.787Z,100819.28
2022-09-13T23:35:12.898Z,100831.94
2022-09-13T23:37:42.068Z,100828.63
2022-09-13T23:40:12.020Z,100830.09
2022-09-13T23:42:41.294Z,100823.78
2022-09-13T23:45:12.249Z,100824.94
2022-09-13T23:47:42.752Z,100808.16
2022-09-13T23:50:12.211Z,100819.88
2022-09-13T23:52:41.338Z,100815.75
2022-09-13T23:55:14.732Z,100786.91
2022-09-13T23:57:43.872Z,100802.19
